Latest Weather Observations for Hillarys Point Boat Harbour

IDW60801

Issued at 10:32 pm WST Thursday 5 March 2015 (issued every 30 minutes, with the page automatically refreshed every 10 minutes)

About weather observations | Map of weather stations | Latest weather observations for WA | Other Formats
Station Details ID: 009265 Name: HILLARYS BOAT HARBOUR NTC AWS Lat: -31.83 Lon: 115.74 Height: 0.0 m
Data from the previous 72 hours. | See also: Recent months for locations in Western Australia
Date/Time
WST
Temp
°C
App
Temp
°C
Dew
Point
Rel
Hum
%
Delta-T
°C
Wind Press
QNH
hPa
Press
MSL
hPa
Rain
since 9 am
mm
Dir
 
Spd
km/h
Gust
km/h
Spd
kts
Gust
kts
05/10:30pm 26.1 - - - - E 4 9 2 5 1019.8 1019.8 -
05/10:00pm 26.5 - - - - E 4 9 2 5 1020.1 1020.1 -
05/09:30pm 26.6 - - - - E 2 9 1 5 1020.3 1020.3 -
05/09:00pm 24.5 - - - - SSE 2 6 1 3 1020.1 1020.1 -
05/08:30pm 24.1 - - - - S 4 9 2 5 1019.8 1019.8 -
05/08:00pm 24.3 - - - - SSE 4 9 2 5 1019.5 1019.5 -
05/07:30pm 24.3 - - - - S 2 9 1 5 1019.1 1019.1 -
05/07:00pm 24.4 - - - - S 2 13 1 7 1018.7 1018.7 -
05/06:30pm 24.8 - - - - S 4 15 2 8 1018.5 1018.5 -
05/06:00pm 25.0 - - - - SSW 6 17 3 9 1018.4 1018.4 -
05/05:30pm 25.3 - - - - SSW 6 17 3 9 1018.4 1018.4 -
05/05:00pm 25.1 - - - - SSW 7 19 4 10 1018.3 1018.3 -
05/04:30pm 25.0 - - - - SSW 11 24 6 13 1018.1 1018.1 -
05/04:00pm 25.9 - - - - SSW 15 26 8 14 1018.2 1018.2 -
05/03:41pm 26.0 - - - - SW 7 26 4 14 1018.2 1018.2 -
05/03:30pm 31.2 - - - - SSE 6 15 3 8 1018.2 1018.2 -
05/03:00pm 31.8 - - - - ESE 9 20 5 11 1018.6 1018.6 -
05/02:30pm 30.8 - - - - ENE 11 24 6 13 1018.9 1018.9 -
05/02:00pm 30.3 - - - - ESE 9 19 5 10 1019.5 1019.5 -
05/01:30pm 29.9 - - - - NE 11 28 6 15 1020.0 1020.0 -
05/01:00pm 29.2 - - - - ENE 17 30 9 16 1020.4 1020.4 -
05/12:30pm 28.6 - - - - E 13 24 7 13 1020.9 1020.9 -
05/12:00pm 28.1 - - - - ENE 17 35 9 19 1021.4 1021.4 -
05/11:30am 27.1 - - - - ENE 13 26 7 14 1021.8 1021.8 -
05/11:00am 26.2 - - - - E 13 24 7 13 1022.3 1022.3 -
05/10:30am 25.8 - - - - ENE 17 28 9 15 1022.6 1022.6 -
05/10:00am 25.1 - - - - ENE 17 32 9 17 1022.9 1022.9 -
05/09:30am 24.1 - - - - ENE 17 32 9 17 1022.9 1022.9 -
05/09:00am 22.8 - - - - ENE 13 22 7 12 1023.0 1023.0 -
05/08:30am 21.6 - - - - ENE 13 19 7 10 1023.1 1023.1 -
05/08:00am 20.7 - - - - ENE 9 17 5 9 1023.2 1023.2 -
05/07:30am 20.1 - - - - E 7 15 4 8 1023.1 1023.1 -
05/07:00am 19.3 - - - - E 6 13 3 7 1022.8 1022.8 -
05/06:30am 18.9 - - - - E 6 13 3 7 1022.5 1022.5 -
05/06:00am 18.9 - - - - E 6 13 3 7 1022.3 1022.3 -
05/05:30am 19.2 - - - - E 6 13 3 7 1022.1 1022.1 -
05/05:00am 19.5 - - - - E 7 15 4 8 1021.8 1021.8 -
05/04:30am 19.9 - - - - E 6 11 3 6 1021.6 1021.6 -
05/04:00am 20.3 - - - - E 7 17 4 9 1021.3 1021.3 -
05/03:30am 20.9 - - - - E 9 17 5 9 1021.2 1021.2 -
05/03:00am 21.4 - - - - E 11 24 6 13 1020.9 1020.9 -
05/02:30am 21.8 - - - - E 11 28 6 15 1020.6 1020.6 -
05/02:00am 22.6 - - - - E 13 32 7 17 1020.5 1020.5 -
05/01:30am 23.5 - - - - E 11 28 6 15 1020.3 1020.3 -
05/01:00am 24.2 - - - - E 13 26 7 14 1020.3 1020.3 -
05/12:30am 24.6 - - - - E 11 22 6 12 1020.4 1020.4 -
05/12:00am 25.2 - - - - E 9 20 5 11 1020.3 1020.3 -
 
Date/Time
WST
Temp
°C
App
Temp
°C
Dew
Point
Rel
Hum
%
Delta-T
°C
Wind Press
QNH
hPa
Press
MSL
hPa
Rain
since 9 am
mm
Dir
 
Spd
km/h
Gust
km/h
Spd
kts
Gust
kts
04/11:30pm 25.9 - - - - E 11 24 6 13 1020.1 1020.1 -
04/11:00pm 26.3 - - - - E 11 28 6 15 1020.0 1020.0 -
04/10:30pm 26.9 - - - - E 9 24 5 13 1019.8 1019.8 -
04/10:00pm 26.9 - - - - E 6 11 3 6 1019.8 1019.8 -
04/09:30pm 26.3 - - - - ESE 4 9 2 5 1019.8 1019.8 -
04/09:00pm 24.0 - - - - ESE 2 6 1 3 1019.7 1019.7 -
04/08:30pm 23.7 - - - - SSE 4 9 2 5 1019.4 1019.4 -
04/08:00pm 23.9 - - - - S 6 15 3 8 1019.1 1019.1 -
04/07:30pm 24.0 - - - - S 6 17 3 9 1018.8 1018.8 -
04/07:00pm 23.7 - - - - S 6 17 3 9 1018.7 1018.7 -
04/06:30pm 23.9 - - - - S 7 20 4 11 1018.6 1018.6 -
04/06:00pm 24.4 - - - - SSW 7 20 4 11 1018.4 1018.4 -
04/05:30pm 24.5 - - - - SSW 7 20 4 11 1018.3 1018.3 -
04/05:00pm 24.4 - - - - S 7 24 4 13 1018.1 1018.1 -
04/04:30pm 24.3 - - - - SSW 11 28 6 15 1018.2 1018.2 -
04/04:00pm 24.1 - - - - SSW 9 20 5 11 1018.1 1018.1 -
04/03:30pm 24.2 - - - - SSW 9 24 5 13 1018.1 1018.1 -
04/03:00pm 24.6 - - - - SSW 9 22 5 12 1018.3 1018.3 -
04/02:30pm 24.6 - - - - SSW 11 24 6 13 1018.4 1018.4 -
04/02:00pm 24.3 - - - - SSW 15 28 8 15 1018.8 1018.8 -
04/01:30pm 24.4 - - - - SW 17 26 9 14 1019.1 1019.1 -
04/01:00pm 25.6 - - - - SW 9 20 5 11 1019.2 1019.2 -
04/12:30pm 28.9 - - - - SE 6 13 3 7 1019.6 1019.6 -
04/12:00pm 28.7 - - - - E 9 19 5 10 1020.0 1020.0 -
04/11:30am 27.0 - - - - ENE 13 24 7 13 1020.4 1020.4 -
04/11:00am 26.5 - - - - E 9 19 5 10 1020.8 1020.8 -
04/10:30am 25.3 - - - - E 11 24 6 13 1021.1 1021.1 -
04/10:00am 23.9 - - - - E 9 17 5 9 1021.4 1021.4 -
04/09:30am 23.1 - - - - E 9 20 5 11 1021.5 1021.5 -
04/09:00am 22.1 - - - - E 13 24 7 13 1021.5 1021.5 -
04/08:30am 21.2 - - - - E 11 28 6 15 1021.5 1021.5 -
04/08:00am 20.2 - - - - E 15 30 8 16 1021.3 1021.3 -
04/07:30am 19.6 - - - - ENE 15 32 8 17 1020.9 1020.9 -
04/07:00am 19.1 - - - - E 11 20 6 11 1020.7 1020.7 -
04/06:30am 18.6 - - - - E 6 13 3 7 1020.6 1020.6 -
04/06:00am 18.7 - - - - ENE 11 22 6 12 1020.0 1020.0 -
04/05:30am 18.9 - - - - ENE 13 22 7 12 1019.6 1019.6 -
04/05:00am 19.3 - - - - E 17 30 9 16 1019.0 1019.0 -
04/04:30am 19.6 - - - - E 17 35 9 19 1018.7 1018.7 -
04/04:00am 20.0 - - - - E 11 24 6 13 1018.7 1018.7 -
04/03:30am 20.3 - - - - E 11 26 6 14 1018.4 1018.4 -
04/03:00am 20.8 - - - - E 15 32 8 17 1018.3 1018.3 -
04/02:30am 21.0 - - - - E 13 24 7 13 1018.1 1018.1 -
04/02:00am 21.5 - - - - E 15 32 8 17 1018.2 1018.2 -
04/01:30am 21.9 - - - - E 13 26 7 14 1018.4 1018.4 -
04/01:00am 22.3 - - - - E 13 28 7 15 1018.4 1018.4 -
04/12:30am 22.8 - - - - E 15 30 8 16 1018.7 1018.7 -
04/12:00am 23.6 - - - - E 7 20 4 11 1018.5 1018.5 -
 
Date/Time
WST
Temp
°C
App
Temp
°C
Dew
Point
Rel
Hum
%
Delta-T
°C
Wind Press
QNH
hPa
Press
MSL
hPa
Rain
since 9 am
mm
Dir
 
Spd
km/h
Gust
km/h
Spd
kts
Gust
kts
03/11:30pm 24.3 - - - - E 13 28 7 15 1018.3 1018.3 -
03/11:00pm 25.1 - - - - E 7 20 4 11 1018.3 1018.3 -
03/10:30pm 25.7 - - - - E 9 20 5 11 1018.1 1018.1 -
03/10:00pm 24.9 - - - - E 4 7 2 4 1018.1 1018.1 -
03/09:30pm 24.4 - - - - ESE 2 7 1 4 1018.0 1018.0 -
03/09:00pm 23.6 - - - - SE 2 6 1 3 1017.9 1017.9 -
03/08:30pm 23.5 - - - - SE 4 9 2 5 1017.5 1017.5 -
03/08:00pm 23.6 - - - - S 4 15 2 8 1017.1 1017.1 -
03/07:30pm 23.5 - - - - SSW 7 17 4 9 1016.8 1016.8 -
03/07:00pm 23.4 - - - - SSW 7 22 4 12 1016.5 1016.5 -
03/06:30pm 23.6 - - - - SSW 9 28 5 15 1016.2 1016.2 -
03/06:00pm 23.9 - - - - SSW 9 22 5 12 1016.2 1016.2 -
03/05:30pm 24.2 - - - - SSW 9 28 5 15 1016.1 1016.1 -
03/05:00pm 24.2 - - - - S 9 22 5 12 1016.2 1016.2 -
03/04:30pm 24.2 - - - - SSW 9 20 5 11 1016.3 1016.3 -
03/04:00pm 24.5 - - - - SSW 11 22 6 12 1016.4 1016.4 -
03/03:30pm 24.0 - - - - SSW 11 24 6 13 1016.5 1016.5 -
03/03:00pm 23.7 - - - - SSW 15 30 8 16 1016.6 1016.6 -
03/02:30pm 23.8 - - - - SSW 19 33 10 18 1016.9 1016.9 -
03/02:00pm 23.7 - - - - SSW 17 30 9 16 1017.2 1017.2 -
03/01:30pm 23.8 - - - - SSW 17 26 9 14 1017.4 1017.4 -
03/01:00pm 24.0 - - - - SW 19 30 10 16 1017.6 1017.6 -
03/12:30pm 24.8 - - - - SW 13 24 7 13 1017.9 1017.9 -
03/12:00pm 25.9 - - - - S 6 11 3 6 1018.4 1018.4 -
03/11:30am 26.0 - - - - SE 6 15 3 8 1018.7 1018.7 -
03/11:00am 25.6 - - - - E 7 19 4 10 1019.1 1019.1 -
03/10:30am 24.6 - - - - ESE 6 19 3 10 1019.3 1019.3 -
03/10:00am 24.1 - - - - E 7 28 4 15 1019.5 1019.5 -
03/09:30am 23.2 - - - - ENE 11 20 6 11 1019.5 1019.5 -
03/09:00am 22.5 - - - - E 7 19 4 10 1019.7 1019.7 -
03/08:30am 21.4 - - - - E 7 22 4 12 1019.6 1019.6 -
03/08:00am 20.6 - - - - E 7 19 4 10 1019.6 1019.6 -
03/07:30am 19.8 - - - - E 9 24 5 13 1019.4 1019.4 -
03/07:00am 19.0 - - - - E 7 20 4 11 1019.2 1019.2 -
03/06:30am 18.4 - - - - ESE 4 9 2 5 1019.0 1019.0 -
03/06:00am 18.4 - - - - E 6 13 3 7 1018.8 1018.8 -
03/05:30am 18.4 - - - - ESE 4 11 2 6 1018.7 1018.7 -
03/05:00am 18.4 - - - - ESE 4 9 2 5 1018.6 1018.6 -
03/04:30am 18.6 - - - - ESE 4 17 2 9 1018.5 1018.5 -
03/04:00am 18.7 - - - - ESE 6 13 3 7 1018.3 1018.3 -
03/03:30am 18.8 - - - - E 6 15 3 8 1018.2 1018.2 -
03/03:00am 19.1 - - - - E 6 20 3 11 1018.0 1018.0 -
03/02:30am 19.1 - - - - E 7 19 4 10 1017.8 1017.8 -
03/02:00am 19.3 - - - - E 7 20 4 11 1017.8 1017.8 -
03/01:30am 19.4 - - - - E 9 28 5 15 1017.8 1017.8 -
03/01:00am 19.8 - - - - E 9 24 5 13 1017.7 1017.7 -
03/12:30am 20.3 - - - - E 9 22 5 12 1017.5 1017.5 -
03/12:00am 20.6 - - - - E 7 17 4 9 1017.7 1017.7 -
 
Date/Time
WST
Temp
°C
App
Temp
°C
Dew
Point
Rel
Hum
%
Delta-T
°C
Wind Press
QNH
hPa
Press
MSL
hPa
Rain
since 9 am
mm
Dir
 
Spd
km/h
Gust
km/h
Spd
kts
Gust
kts
02/11:30pm 20.9 - - - - E 7 22 4 12 1017.6 1017.6 -
02/11:00pm 21.3 - - - - E 9 22 5 12 1017.3 1017.3 -

Other Formats:

Comma delimited format used in spreadsheet applications
http://www.bom.gov.au/fwo/IDW60801/IDW60801.95605.axf

JavaScript Object Notation format (JSON) in row-major order
http://www.bom.gov.au/fwo/IDW60801/IDW60801.95605.json